Flight Track Log - Related Links

Times and Time Zones

All times are in EDT time to prevent confusion due to time zone crossing. See the SKW6492 flight status page for this flight to view local times or setup timezone preferences in your user account.

Time Position Orientation Groundspeed Altitude Reporting Facility
EDT Latitude Longitude Course Direction KTS MPH feet Rate Location/Type
Mon 09:50:48 PM 39.9000 -104.6833 346° North 189 217 6,300  Level Denver TRACON
Mon 09:51:48 PM 39.9667 -104.6833 360° North 218 251 8,400 2,350 Climbing Denver TRACON
Mon 09:52:48 PM 40.0333 -104.6667 11° North 243 280 11,000 2,250 Climbing Denver TRACON
Mon 09:53:00 PM 40.1486 -104.7662 344° North  Level FlightAware Approximate
Mon 09:53:48 PM 40.1000 -104.6667 360° North 239 275 12,900  Level Denver TRACON
Mon 09:54:00 PM 40.2489 -104.7963 347° North  Level FlightAware Approximate
Mon 09:54:48 PM 40.1667 -104.6833 349° North 234 269 15,400  Level Denver TRACON
Mon 09:55:00 PM 40.3491 -104.8275 346° North  Level FlightAware Approximate
Mon 09:56:00 PM 40.4489 -104.8607 346° North  Level FlightAware Approximate
Mon 09:56:28 PM 40.2736 -104.7156 347° North 268 308 17,900  Level Denver Center
Mon 09:57:30 PM 40.3678 -104.7400 349° North 277 319 19,900 1,694 Climbing Denver Center
Mon 09:58:32 PM 40.4361 -104.7847 334° Northwest 279 321 21,400 1,452 Climbing Denver Center
Mon 09:59:34 PM 40.5069 -104.8522 324° Northwest 292 336 22,900 1,512 Climbing Denver Center
Mon 10:00:35 PM 40.5689 -104.9136 323° Northwest 288 331 24,500 1,415 Climbing Denver Center
Mon 10:01:37 PM 40.6336 -104.9742 325° Northwest 287 330 25,800 726 Climbing Denver Center
Mon 10:02:39 PM 40.6997 -105.0386 324° Northwest 294 338 26,000 98 Climbing Denver Center
Mon 10:03:40 PM 40.7650 -105.0975 326° Northwest 285 328 26,000  Level Denver Center
Mon 10:04:42 PM 40.8456 -105.1767 323° Northwest 301 346 26,000  Level Denver Center
Mon 10:05:44 PM 40.9117 -105.2403 324° Northwest 297 342 26,000  Level Denver Center
Mon 10:06:46 PM 40.9775 -105.3058 323° Northwest 296 341 26,000  Level Denver Center
Mon 10:07:47 PM 41.0506 -105.3750 324° Northwest 294 338 26,000  Level Denver Center
Mon 10:09:01 PM 41.1131 -105.4383 323° Northwest 294 338 26,000  Level Denver Center
Mon 10:10:03 PM 41.1986 -105.5214 324° Northwest 297 342 26,000  Level Denver Center
Mon 10:11:05 PM 41.2622 -105.5853 323° Northwest 300 345 26,000  Level Denver Center
Mon 10:12:06 PM 41.3381 -105.6603 323° Northwest 303 349 26,000  Level Denver Center
Mon 10:13:08 PM 41.4031 -105.7247 323° Northwest 303 349 26,000  Level Denver Center
Mon 10:14:09 PM 41.4694 -105.7906 323° Northwest 308 354 26,000  Level Denver Center
Mon 10:15:11 PM 41.5458 -105.8661 323° Northwest 307 353 26,000  Level Denver Center
Mon 10:16:13 PM 41.6103 -105.9294 324° Northwest 302 348 26,000  Level Denver Center
Mon 10:17:14 PM 41.6864 -106.0075 323° Northwest 308 354 26,000  Level Denver Center
Mon 10:18:16 PM 41.7525 -106.0728 324° Northwest 306 352 26,000  Level Denver Center
Mon 10:19:17 PM 41.8181 -106.1386 323° Northwest 306 352 26,000  Level Denver Center
Mon 10:20:19 PM 41.8961 -106.2172 323° Northwest 310 357 26,000  Level Denver Center
Mon 10:21:20 PM 41.9625 -106.2850 323° Northwest 313 360 26,000  Level Denver Center
Mon 10:22:22 PM 42.0392 -106.3625 323° Northwest 310 357 26,000  Level Denver Center
Mon 10:23:24 PM 42.1064 -106.4306 323° Northwest 314 361 26,000  Level Denver Center
Mon 10:24:25 PM 42.1714 -106.4972 323° Northwest 310 357 26,000  Level Denver Center
Mon 10:25:27 PM 42.2447 -106.5711 323° Northwest 316 364 26,000  Level Denver Center
Mon 10:26:28 PM 42.3214 -106.6508 322° Northwest 314 361 26,000  Level Denver Center
Mon 10:27:29 PM 42.3722 -106.7031 323° Northwest 314 361 26,000  Level Denver Center
Mon 10:28:31 PM 42.4597 -106.7947 322° Northwest 312 359 26,000  Level Denver Center
Mon 10:29:33 PM 42.5261 -106.8625 323° Northwest 312 359 26,000  Level Denver Center
Mon 10:30:34 PM 42.6075 -106.9467 323° Northwest 311 358 26,000  Level Denver Center
Mon 10:31:35 PM 42.6706 -107.0128 322° Northwest 315 362 26,000  Level Denver Center
Mon 10:32:49 PM 42.7500 -107.0950 323° Northwest 320 368 26,000  Level Denver Center
Mon 10:33:51 PM 42.8269 -107.1769 322° Northwest 317 365 26,000  Level Denver Center
Mon 10:34:52 PM 42.9050 -107.2578 323° Northwest 315 362 26,000  Level Denver Center
Mon 10:35:53 PM 42.9708 -107.3289 322° Northwest 314 361 26,000  Level Denver Center
Mon 10:36:55 PM 43.0483 -107.4106 322° Northwest 316 364 26,000  Level Denver Center
Mon 10:37:56 PM 43.1133 -107.4806 322° Northwest 312 359 26,000  Level Denver Center
Mon 10:38:58 PM 43.1833 -107.5539 323° Northwest 316 364 26,000  Level Denver Center
Mon 10:39:59 PM 43.2592 -107.6356 322° Northwest 313 360 26,000  Level Denver Center
Mon 10:41:01 PM 43.3250 -107.7058 322° Northwest 312 359 26,000  Level Denver Center
Mon 10:42:02 PM 43.3908 -107.7767 322° Northwest 314 361 26,000  Level Denver Center
Mon 10:43:03 PM 43.4672 -107.8592 322° Northwest 315 362 26,000  Level Denver Center
Mon 10:44:22 PM 43.5556 -107.9558 322° Northwest 315 362 26,000  Level Salt Lake Center
Mon 10:45:24 PM 43.6225 -108.0283 322° Northwest 319 367 26,000 -439 Level Salt Lake Center
Mon 10:46:25 PM 43.7003 -108.1144 321° Northwest 321 369 25,100 -1,415 Descending Salt Lake Center
Mon 10:47:27 PM 43.7678 -108.1883 322° Northwest 323 372 23,100 -2,049 Descending Salt Lake Center
Mon 10:48:28 PM 43.8433 -108.2703 322° Northwest 313 360 20,900 -1,707 Descending Salt Lake Center
Mon 10:49:30 PM 43.9039 -108.3364 322° Northwest 310 357 19,600 -1,258 Descending Salt Lake Center
Mon 10:51:00 PM 44.0040 -108.4484 321° Northwest  Level FlightAware Approximate
Mon 10:58:00 PM 44.4720 -108.9720 324° Northwest  Level FlightAware Approximate
Mon 10:59:00 PM 44.5167 -109.0167 325° Northwest  Level FlightAware Approximate
Mon 11:00:00 PM 44.5202 -109.0238 325° Northwest  Level Estimated
Mon 11:01:00 PM 44.5167 -109.0167 325° Northwest  Level FlightAware Approximate
Mon 11:02:00 PM 44.5202 -109.0238 325° Northwest  Level Estimated
Mon 11:03:00 PM 44.5167 -109.0167 325° Northwest  Level FlightAware Approximate

Login

Don't have an account? Register now (free) for customized features, flight alerts, and more!